Time;durP1;ratioP1;P1;durP2;ratioP2;P2;SDS_P1;SDS_P2;PMS_P1;PMS_P2;Temp;Humidity;BMP_temperature;BMP_pressure;BME280_temperature;BME280_humidity;BME280_pressure;Samples;Min_cycle;Max_cycle;Signal;HPM_P1;HPM_P2
2022/08/04 00:02:10;;;;;;;14.07;2.67;;;;;;;18.21;95.72;100410.50;5060788;28;20054;-65
2022/08/04 00:04:35;;;;;;;0.20;0.20;;;;;;;18.18;95.78;100405.38;5103995;28;20051;-65
2022/08/04 00:07:19;;;;;;;0.20;0.20;;;;;;;18.18;95.77;100404.50;5104018;28;20065;-65
2022/08/04 00:10:02;;;;;;;0.20;0.20;;;;;;;18.19;95.82;100407.09;5103760;28;20024;-65
2022/08/04 00:12:34;;;;;;;0.20;0.20;;;;;;;18.13;95.97;100409.13;5103819;28;20035;-65
2022/08/04 00:15:02;;;;;;;0.35;0.35;;;;;;;18.07;96.09;100415.41;5103634;28;20032;-67
2022/08/04 00:17:43;;;;;;;0.20;0.20;;;;;;;18.02;95.94;100412.97;5103426;28;20101;-65
2022/08/04 00:20:11;;;;;;;2.22;2.03;;;;;;;17.90;96.09;100411.69;5103719;28;20012;-65
2022/08/04 00:22:39;;;;;;;0.30;0.30;;;;;;;17.87;95.87;100406.56;5103659;28;20024;-65
2022/08/04 00:25:05;;;;;;;0.20;0.20;;;;;;;17.82;96.41;100408.50;5103762;28;20031;-65
2022/08/04 00:27:31;;;;;;;1.08;1.08;;;;;;;17.84;96.18;100411.94;5103869;28;20020;-65
2022/08/04 00:29:58;;;;;;;0.20;0.20;;;;;;;17.79;96.58;100408.63;5103322;28;20050;-65
2022/08/04 00:32:25;;;;;;;0.20;0.20;;;;;;;17.68;96.30;100414.31;5103608;28;20031;-65
2022/08/04 00:34:53;;;;;;;0.20;0.20;;;;;;;17.56;95.68;100416.47;5103508;28;20058;-65
2022/08/04 00:37:21;;;;;;;0.20;0.20;;;;;;;17.52;95.41;100412.28;5102734;28;20252;-65
2022/08/04 00:39:48;;;;;;;0.30;0.30;;;;;;;17.48;95.84;100415.91;5103276;28;20031;-65
2022/08/04 00:42:35;;;;;;;0.28;0.28;;;;;;;17.41;95.31;100414.44;5103374;28;20020;-65
2022/08/04 00:45:18;;;;;;;0.75;0.75;;;;;;;17.38;95.70;100420.63;5103249;28;20016;-65
2022/08/04 00:48:04;;;;;;;0.20;0.20;;;;;;;17.31;95.91;100413.91;5103556;28;20032;-65
2022/08/04 00:50:49;;;;;;;0.20;0.20;;;;;;;17.23;95.73;100419.44;5103239;28;20121;-65
2022/08/04 00:53:22;;;;;;;0.30;0.30;;;;;;;17.16;96.20;100423.19;5103260;28;20092;-65
2022/08/04 00:56:26;;;;;;;0.20;0.20;;;;;;;17.13;95.65;100423.28;5103261;28;20024;-65
2022/08/04 00:59:01;;;;;;;0.20;0.20;;;;;;;17.05;95.77;100424.41;5051129;28;20094;-65
2022/08/04 01:01:44;;;;;;;0.20;0.20;;;;;;;16.97;96.03;100424.66;5103305;28;20031;-65
2022/08/04 01:04:23;;;;;;;0.60;0.60;;;;;;;16.94;95.91;100416.03;5103091;28;20391;-65
2022/08/04 01:07:00;;;;;;;0.20;0.20;;;;;;;16.97;96.13;100418.56;5103255;28;20024;-65
2022/08/04 01:09:42;;;;;;;0.20;0.20;;;;;;;16.95;96.63;100415.13;5102989;28;20020;-65
2022/08/04 01:12:23;;;;;;;0.30;0.30;;;;;;;16.87;96.68;100430.28;5103040;28;20082;-65
2022/08/04 01:15:00;;;;;;;0.20;0.20;;;;;;;16.88;96.55;100424.13;5102849;28;20063;-65
2022/08/04 01:17:34;;;;;;;0.40;0.40;;;;;;;16.85;96.70;100428.56;5102932;28;20051;-65
2022/08/04 01:20:09;;;;;;;7.88;3.80;;;;;;;16.81;97.11;100433.97;5102862;28;20448;-65
2022/08/04 01:23:23;;;;;;;0.20;0.20;;;;;;;16.77;96.70;100435.84;5103254;28;20032;-64
2022/08/04 01:25:57;;;;;;;0.20;0.20;;;;;;;16.70;96.84;100434.34;5080677;28;20024;-65
2022/08/04 01:28:35;;;;;;;6.13;2.08;;;;;;;16.64;96.64;100438.03;5103191;28;20016;-65
2022/08/04 01:31:23;;;;;;;0.20;0.20;;;;;;;16.65;96.80;100442.34;5102859;28;20278;-65
2022/08/04 01:33:52;;;;;;;0.52;0.52;;;;;;;16.62;97.12;100442.47;5103170;28;20093;-64
2022/08/04 01:36:23;;;;;;;0.20;0.20;;;;;;;16.64;96.78;100439.78;5102900;28;20034;-65
2022/08/04 01:38:49;;;;;;;0.50;0.50;;;;;;;16.62;96.89;100447.69;5102646;28;20472;-64
2022/08/04 01:41:19;;;;;;;0.20;0.20;;;;;;;16.60;97.03;100439.88;5102825;28;20091;-64
2022/08/04 01:43:45;;;;;;;0.30;0.30;;;;;;;16.60;96.73;100449.50;5103106;28;20099;-65
2022/08/04 01:46:14;;;;;;;0.50;0.50;;;;;;;16.58;97.00;100452.19;5102765;28;20043;-65
2022/08/04 01:48:43;;;;;;;0.20;0.20;;;;;;;16.59;97.37;100446.06;5103855;28;20072;-65
2022/08/04 01:51:09;;;;;;;0.20;0.20;;;;;;;16.60;96.95;100445.13;5106472;28;20031;-64
2022/08/04 01:53:42;;;;;;;0.20;0.20;;;;;;;16.62;97.14;100442.47;5106501;28;20047;-65
2022/08/04 01:56:09;;;;;;;0.20;0.20;;;;;;;16.65;97.31;100446.72;5106407;28;20039;-65
2022/08/04 01:58:36;;;;;;;0.20;0.20;;;;;;;16.60;97.41;100447.75;5106077;28;20039;-63
2022/08/04 02:01:07;;;;;;;0.20;0.20;;;;;;;16.62;97.58;100449.44;5106220;28;20138;-64
2022/08/04 02:03:34;;;;;;;0.30;0.30;;;;;;;16.60;97.87;100445.13;5106278;28;20027;-64
2022/08/04 02:06:16;;;;;;;0.30;0.30;;;;;;;16.62;98.00;100446.84;5106299;28;20027;-64
2022/08/04 02:09:08;;;;;;;0.20;0.20;;;;;;;16.59;97.84;100448.66;5106333;28;20027;-64
2022/08/04 02:11:33;;;;;;;0.30;0.30;;;;;;;16.58;98.18;100440.84;5106062;28;20023;-64
2022/08/04 02:14:39;;;;;;;0.30;0.30;;;;;;;16.53;98.13;100440.16;5105981;28;20034;-65
2022/08/04 02:17:12;;;;;;;0.20;0.20;;;;;;;16.52;98.35;100438.44;5105658;28;20048;-64
2022/08/04 02:20:04;;;;;;;0.40;0.40;;;;;;;16.49;98.58;100436.75;5105915;28;20050;-64
2022/08/04 02:22:33;;;;;;;0.57;0.57;;;;;;;16.44;98.56;100434.28;5092605;28;20104;-64
2022/08/04 02:25:09;;;;;;;0.20;0.20;;;;;;;16.38;98.88;100433.63;5105983;28;20043;-64
2022/08/04 02:27:53;;;;;;;0.20;0.20;;;;;;;16.38;98.61;100433.63;5105783;28;20062;-64
2022/08/04 02:30:19;;;;;;;0.20;0.20;;;;;;;16.29;98.69;100419.94;5105654;28;20020;-64
2022/08/04 02:32:47;;;;;;;0.20;0.20;;;;;;;16.32;98.19;100437.31;5105822;28;20020;-64
2022/08/04 02:35:26;;;;;;;0.30;0.30;;;;;;;16.31;98.37;100443.47;5105573;28;20034;-64
2022/08/04 02:38:11;;;;;;;0.22;0.22;;;;;;;16.26;98.00;100433.13;5105549;28;20047;-64
2022/08/04 02:40:39;;;;;;;0.20;0.20;;;;;;;16.23;98.04;100426.22;5105336;28;20020;-64
2022/08/04 02:43:07;;;;;;;0.43;0.43;;;;;;;16.20;98.13;100426.31;5105860;28;20020;-64
2022/08/04 02:45:36;;;;;;;0.20;0.20;;;;;;;16.17;98.09;100431.66;5105487;28;20096;-64
2022/08/04 02:48:02;;;;;;;0.20;0.20;;;;;;;16.14;98.02;100430.88;5105343;28;20523;-64
2022/08/04 02:50:33;;;;;;;0.32;0.32;;;;;;;16.12;98.07;100433.56;5105252;28;20032;-64
2022/08/04 02:53:01;;;;;;;0.22;0.22;;;;;;;16.09;98.33;100444.13;5105312;28;20024;-64
2022/08/04 02:55:28;;;;;;;0.20;0.20;;;;;;;16.09;98.01;100449.34;5105179;28;20028;-64
2022/08/04 02:57:57;;;;;;;0.30;0.30;;;;;;;16.08;98.43;100453.75;5105035;28;20468;-64
2022/08/04 03:00:22;;;;;;;0.20;0.20;;;;;;;16.06;98.28;100449.47;5104220;28;20034;-64
2022/08/04 03:03:06;;;;;;;0.20;0.20;;;;;;;16.04;98.35;100444.28;5105192;28;20123;-64
2022/08/04 03:05:40;;;;;;;0.22;0.22;;;;;;;16.03;98.46;100442.56;5105110;28;20038;-64
2022/08/04 03:08:30;;;;;;;0.20;0.20;;;;;;;16.02;98.46;100453.09;5105243;28;20187;-64
2022/08/04 03:10:58;;;;;;;0.20;0.20;;;;;;;16.00;98.58;100450.50;5105064;28;20081;-64
2022/08/04 03:13:45;;;;;;;0.20;0.20;;;;;;;16.01;98.81;100452.22;5104937;28;20050;-64
2022/08/04 03:16:49;;;;;;;0.20;0.20;;;;;;;16.04;98.84;100446.88;5104512;28;20040;-65
2022/08/04 03:19:36;;;;;;;0.40;0.40;;;;;;;16.04;98.96;100441.66;5104659;28;20028;-65
2022/08/04 03:22:52;;;;;;;0.25;0.25;;;;;;;16.07;99.48;100444.16;5086537;28;20028;-64
2022/08/04 03:25:49;;;;;;;0.30;0.30;;;;;;;16.12;99.44;100444.03;5104888;28;20448;-65
2022/08/04 03:28:28;;;;;;;0.20;0.20;;;;;;;16.12;99.68;100445.81;5061036;28;20032;-66
2022/08/04 03:31:15;;;;;;;0.20;0.20;;;;;;;16.15;99.66;100450.94;5104400;28;20065;-66
2022/08/04 03:34:08;;;;;;;0.20;0.20;;;;;;;16.22;100.00;100458.56;5104454;28;20023;-64
2022/08/04 03:37:10;;;;;;;0.22;0.22;;;;;;;16.34;100.00;100456.47;5104561;28;20023;-64
2022/08/04 03:39:57;;;;;;;0.40;0.40;;;;;;;16.47;100.00;100452.53;5104340;28;20023;-64
2022/08/04 03:42:43;;;;;;;0.30;0.30;;;;;;;16.70;100.00;100457.94;5104520;28;20356;-65
2022/08/04 03:45:33;;;;;;;0.45;0.45;;;;;;;17.03;100.00;100449.81;5104188;28;20032;-65
2022/08/04 03:48:12;;;;;;;0.20;0.20;;;;;;;17.33;100.00;100449.66;5104278;28;20023;-65
2022/08/04 03:54:39;;;;;;;0.32;0.32;;;;;;;18.04;100.00;100447.06;5104174;28;20047;-65
2022/08/04 03:57:13;;;;;;;0.85;0.85;;;;;;;18.36;100.00;100451.97;5104193;28;20019;-66
2022/08/04 04:00:04;;;;;;;0.20;0.20;;;;;;;18.77;100.00;100454.66;5085503;28;20589;-66
2022/08/04 04:03:28;;;;;;;0.65;0.65;;;;;;;19.26;100.00;100443.00;5103934;28;20023;-66
2022/08/04 04:05:56;;;;;;;2.17;1.50;;;;;;;19.50;100.00;100445.44;5104099;28;20077;-65
2022/08/04 04:08:39;;;;;;;0.20;0.20;;;;;;;19.32;100.00;100452.38;5103801;28;20043;-65
2022/08/04 04:11:45;;;;;;;0.20;0.20;;;;;;;19.16;100.00;100450.44;5103863;28;20031;-65
2022/08/04 04:14:22;;;;;;;0.20;0.20;;;;;;;18.97;99.09;100452.13;5001023;28;20037;-65
2022/08/04 04:17:14;;;;;;;0.50;0.50;;;;;;;18.86;99.10;100453.44;5001359;28;20081;-65
2022/08/04 04:19:46;;;;;;;0.47;0.47;;;;;;;18.85;98.81;100451.72;5001265;28;20030;-65
2022/08/04 04:22:17;;;;;;;0.20;0.20;;;;;;;18.91;99.20;100454.09;5001324;28;20030;-65
2022/08/04 04:25:33;;;;;;;0.20;0.20;;;;;;;19.11;99.42;100447.16;5001243;28;20267;-65
2022/08/04 04:28:33;;;;;;;0.20;0.20;;;;;;;19.40;99.47;100452.03;4943287;29;20036;-65
2022/08/04 04:31:19;;;;;;;0.20;0.20;;;;;;;19.74;100.00;100454.91;4943002;29;20041;-65
2022/08/04 04:33:52;;;;;;;0.40;0.40;;;;;;;20.21;100.00;100461.53;4943205;29;20038;-65
2022/08/04 04:36:36;;;;;;;0.20;0.20;;;;;;;20.83;100.00;100470.81;4943314;29;20215;-65
2022/08/04 04:39:19;;;;;;;0.55;0.50;;;;;;;21.12;100.00;100470.31;4942994;29;20082;-65
2022/08/04 04:41:53;;;;;;;0.55;0.55;;;;;;;21.08;95.60;100461.69;4943174;29;20050;-65
2022/08/04 04:44:30;;;;;;;0.30;0.30;;;;;;;20.83;93.49;100464.69;4942770;29;20039;-65
2022/08/04 04:47:07;;;;;;;0.20;0.20;;;;;;;20.66;92.58;100466.38;4943051;29;20032;-65
2022/08/04 04:49:56;;;;;;;0.30;0.30;;;;;;;20.39;90.99;100465.06;4955664;28;20028;-65
2022/08/04 04:52:47;;;;;;;0.20;0.20;;;;;;;20.18;92.72;100467.81;5040349;28;20037;-65
2022/08/04 04:55:30;;;;;;;0.85;0.85;;;;;;;20.05;93.43;100472.81;5040265;28;20117;-65
2022/08/04 04:58:00;;;;;;;0.20;0.20;;;;;;;19.85;93.35;100467.59;5040267;28;20034;-65
2022/08/04 05:00:42;;;;;;;0.20;0.20;;;;;;;20.12;97.02;100467.22;5039979;28;20057;-66
2022/08/04 05:03:34;;;;;;;0.20;0.20;;;;;;;20.89;100.00;100464.38;5047959;28;20060;-66
2022/08/04 05:06:09;;;;;;;;;;;;;;;21.94;100.00;100457.16;5103646;28;20016;-66
2022/08/04 05:08:42;;;;;;;0.10;0.10;;;;;;;22.51;100.00;100455.72;5103244;28;19908;-66
2022/08/04 05:11:24;;;;;;;0.13;0.13;;;;;;;23.03;100.00;100453.56;5103190;28;20059;-66
2022/08/04 05:13:57;;;;;;;0.10;0.10;;;;;;;23.69;100.00;100452.28;5103276;28;20032;-67
2022/08/04 05:16:36;;;;;;;0.63;0.63;;;;;;;24.30;99.84;100458.22;5102538;28;20166;-67
2022/08/04 05:19:17;;;;;;;0.30;0.30;;;;;;;24.63;98.55;100454.25;5102988;28;20016;-66
2022/08/04 05:21:48;;;;;;;3.10;1.77;;;;;;;25.37;97.56;100442.16;5103090;28;20032;-67
2022/08/04 05:24:18;;;;;;;0.10;0.10;;;;;;;25.96;98.75;100445.97;5104961;28;20028;-67
2022/08/04 05:26:49;;;;;;;0.32;0.32;;;;;;;26.36;96.42;100446.66;5107074;28;20020;-67
2022/08/04 05:29:27;;;;;;;0.10;0.10;;;;;;;27.05;93.26;100442.38;5106955;28;20024;-66
2022/08/04 05:31:55;;;;;;;0.22;0.22;;;;;;;27.73;95.48;100437.16;5088803;28;20045;-67
2022/08/04 05:34:28;;;;;;;0.80;0.80;;;;;;;28.46;96.22;100452.56;5106824;28;20027;-66
2022/08/04 05:36:58;;;;;;;0.10;0.10;;;;;;;28.96;94.96;100459.09;5106787;28;20039;-67
2022/08/04 05:39:27;;;;;;;0.20;0.20;;;;;;;29.03;93.75;100459.41;5106655;28;20031;-67
2022/08/04 05:41:53;;;;;;;0.10;0.10;;;;;;;29.04;86.82;100458.44;5106794;28;20020;-67
2022/08/04 05:44:21;;;;;;;0.10;0.10;;;;;;;29.49;87.81;100451.03;5106424;28;20057;-67
2022/08/04 05:46:49;;;;;;;0.10;0.10;;;;;;;29.70;87.58;100453.63;5106730;28;20031;-67
2022/08/04 05:49:16;;;;;;;0.20;0.20;;;;;;;29.14;79.07;100462.00;5106747;28;20236;-67
2022/08/04 05:51:44;;;;;;;0.65;0.65;;;;;;;28.23;80.62;100449.97;5106529;28;20024;-67
2022/08/04 05:54:12;;;;;;;2.20;0.90;;;;;;;27.37;73.49;100447.94;5106371;28;20084;-66
2022/08/04 05:56:38;;;;;;;0.10;0.10;;;;;;;26.36;75.14;100446.66;5106658;28;20031;-66
2022/08/04 05:59:05;;;;;;;0.63;0.63;;;;;;;25.96;80.10;100445.16;5106106;28;20020;-66
2022/08/04 06:01:31;;;;;;;0.10;0.10;;;;;;;26.09;87.63;100445.94;5106305;28;20031;-67
2022/08/04 06:04:00;;;;;;;0.10;0.10;;;;;;;26.55;92.46;100446.13;5106512;28;20043;-67
2022/08/04 06:06:28;;;;;;;0.10;0.10;;;;;;;27.11;91.69;100451.69;5106239;28;20031;-67
2022/08/04 06:08:54;;;;;;;0.10;0.10;;;;;;;27.41;89.68;100458.25;5106052;28;20022;-67
2022/08/04 06:11:21;;;;;;;0.10;0.10;;;;;;;27.79;88.94;100466.84;5105889;28;20024;-67
2022/08/04 06:13:57;;;;;;;0.17;0.17;;;;;;;27.94;82.22;100467.41;5106241;28;20287;-67
2022/08/04 06:16:25;;;;;;;0.10;0.10;;;;;;;28.09;83.16;100453.78;5105548;28;20051;-67
2022/08/04 06:18:53;;;;;;;0.10;0.10;;;;;;;28.23;80.98;100467.81;5106186;28;20012;-67
2022/08/04 06:21:22;;;;;;;0.10;0.10;;;;;;;28.70;78.82;100455.00;5105909;28;20114;-65
2022/08/04 06:23:49;;;;;;;0.10;0.10;;;;;;;28.33;74.05;100444.75;5106026;28;20052;-65
2022/08/04 06:26:18;;;;;;;0.20;0.20;;;;;;;27.40;63.15;100437.88;5105855;28;20173;-65
2022/08/04 06:28:49;;;;;;;1.75;0.90;;;;;;;26.37;65.84;100448.38;5105500;28;20495;-65
2022/08/04 06:31:41;;;;;;;0.10;0.10;;;;;;;25.92;69.60;100441.00;5105483;28;20027;-65
2022/08/04 06:34:08;;;;;;;0.10;0.10;;;;;;;25.82;74.92;100452.31;5105703;28;20023;-66
2022/08/04 06:36:39;;;;;;;0.10;0.10;;;;;;;26.30;82.05;100442.63;5104562;28;20383;-66
2022/08/04 06:39:06;;;;;;;0.10;0.10;;;;;;;27.15;84.62;100450.50;5105498;28;20031;-67
2022/08/04 06:41:32;;;;;;;0.88;0.63;;;;;;;27.60;80.82;100446.94;5105595;28;20265;-65
2022/08/04 06:44:00;;;;;;;0.25;0.25;;;;;;;27.73;78.48;100450.50;5105440;28;20024;-65
2022/08/04 06:46:27;;;;;;;0.10;0.10;;;;;;;27.57;76.81;100438.38;5105198;28;20509;-65
2022/08/04 06:48:54;;;;;;;0.10;0.10;;;;;;;27.54;79.40;100447.44;5105293;28;20346;-68
2022/08/04 06:51:20;;;;;;;0.10;0.10;;;;;;;27.65;80.45;100437.75;5105260;28;20038;-67
2022/08/04 06:53:47;;;;;;;0.10;0.10;;;;;;;27.54;74.91;100426.13;5105430;28;20043;-67
2022/08/04 06:56:15;;;;;;;0.25;0.25;;;;;;;27.10;77.07;100421.56;5105303;28;20024;-68
2022/08/04 06:58:41;;;;;;;0.35;0.32;;;;;;;26.97;72.76;100420.78;5105216;28;20374;-66
2022/08/04 07:01:07;;;;;;;0.10;0.10;;;;;;;26.60;68.56;100406.69;5105228;28;20020;-67
2022/08/04 07:03:33;;;;;;;0.10;0.10;;;;;;;26.43;70.43;100407.13;5105313;28;20084;-64
2022/08/04 07:05:59;;;;;;;0.10;0.10;;;;;;;26.09;67.02;100405.16;5105275;28;20073;-64
2022/08/04 07:08:25;;;;;;;0.10;0.10;;;;;;;25.69;62.74;100401.84;5105111;28;20042;-65
2022/08/04 07:10:52;;;;;;;0.10;0.10;;;;;;;25.29;64.05;100410.84;5104992;28;20024;-64
2022/08/04 07:13:19;;;;;;;0.20;0.20;;;;;;;25.20;67.32;100407.03;5105450;28;20024;-64
2022/08/04 07:15:46;;;;;;;0.10;0.10;;;;;;;25.28;66.53;100397.66;5104625;28;20098;-64
2022/08/04 07:18:12;;;;;;;1.15;1.10;;;;;;;25.22;61.66;100421.06;5104927;28;20028;-63
2022/08/04 07:20:42;;;;;;;0.40;0.40;;;;;;;24.75;64.12;100410.94;5104876;28;20023;-65
2022/08/04 07:23:10;;;;;;;0.20;0.20;;;;;;;25.10;70.09;100405.97;5104964;28;20031;-64
2022/08/04 07:25:36;;;;;;;0.30;0.30;;;;;;;25.83;69.78;100408.78;5104590;28;20483;-64
2022/08/04 07:28:01;;;;;;;0.10;0.10;;;;;;;25.76;68.29;100401.38;5104935;28;20036;-64
2022/08/04 07:30:29;;;;;;;0.10;0.10;;;;;;;25.45;63.47;100415.03;5104431;28;20027;-64
2022/08/04 07:32:55;;;;;;;0.10;0.10;;;;;;;24.85;63.17;100411.16;5104795;28;20016;-64
2022/08/04 07:35:21;;;;;;;0.25;0.25;;;;;;;24.77;61.64;100410.84;5104544;28;20028;-63
2022/08/04 07:37:46;;;;;;;0.10;0.10;;;;;;;24.40;60.83;100392.97;5104340;28;20024;-63
2022/08/04 07:40:12;;;;;;;0.10;0.10;;;;;;;24.33;64.09;100408.44;5104220;28;20095;-64
2022/08/04 07:42:38;;;;;;;0.10;0.10;;;;;;;24.64;65.54;100405.53;5104529;28;20062;-64
2022/08/04 07:45:03;;;;;;;3.33;1.95;;;;;;;24.54;65.18;100413.25;5103743;28;20052;-59
2022/08/04 07:47:29;;;;;;;0.25;0.25;;;;;;;24.29;66.16;100417.56;5104142;28;20032;-59
2022/08/04 07:49:55;;;;;;;0.10;0.10;;;;;;;24.11;68.11;100411.63;5104364;28;20032;-61
2022/08/04 07:52:21;;;;;;;0.20;0.20;;;;;;;24.26;68.48;100417.78;5104673;28;20016;-64
2022/08/04 07:54:47;;;;;;;0.20;0.20;;;;;;;24.24;66.47;100409.06;5104116;28;20056;-60
2022/08/04 07:57:13;;;;;;;0.17;0.17;;;;;;;23.90;67.62;100398.81;5104260;28;20042;-63
2022/08/04 07:59:38;;;;;;;0.10;0.10;;;;;;;23.71;70.31;100400.03;5103782;28;20107;-67
2022/08/04 08:02:04;;;;;;;0.10;0.10;;;;;;;23.76;71.92;100392.63;5104493;28;20032;-67
2022/08/04 08:04:30;;;;;;;0.43;0.43;;;;;;;23.91;73.90;100391.75;5085869;28;20027;-68
2022/08/04 08:06:56;;;;;;;0.20;0.20;;;;;;;24.22;70.64;100379.97;5104223;28;20047;-68
2022/08/04 08:09:22;;;;;;;0.10;0.10;;;;;;;24.08;69.71;100372.06;5103930;28;20024;-68
2022/08/04 08:11:50;;;;;;;0.25;0.25;;;;;;;23.98;71.80;100363.84;5104181;28;20073;-68
2022/08/04 08:14:17;;;;;;;0.10;0.10;;;;;;;24.50;72.02;100364.00;5104072;28;20019;-67
2022/08/04 08:16:42;;;;;;;0.70;0.68;;;;;;;25.17;69.38;100364.75;5103547;28;20089;-73
2022/08/04 08:19:08;;;;;;;0.10;0.10;;;;;;;25.32;71.07;100351.34;5103652;28;20028;-67
2022/08/04 08:21:34;;;;;;;0.10;0.10;;;;;;;25.16;71.35;100355.06;5103879;28;20126;-66
2022/08/04 08:24:00;;;;;;;0.10;0.10;;;;;;;25.31;72.11;100361.09;5103785;28;20042;-64
2022/08/04 08:26:26;;;;;;;0.10;0.10;;;;;;;25.60;68.90;100365.25;5103681;28;20468;-66
2022/08/04 08:28:52;;;;;;;0.10;0.10;;;;;;;25.29;63.01;100356.88;5103666;28;20083;-63
2022/08/04 08:31:17;;;;;;;0.10;0.10;;;;;;;24.67;61.64;100372.59;5103380;28;20422;-62
2022/08/04 08:33:44;;;;;;;0.20;0.20;;;;;;;24.09;63.73;100366.66;5103539;28;20049;-63
2022/08/04 08:36:18;;;;;;;0.10;0.10;;;;;;;23.78;64.39;100358.09;5103412;28;20024;-66
2022/08/04 08:39:05;;;;;;;0.10;0.10;;;;;;;23.48;65.54;100352.00;5103313;28;20047;-69
2022/08/04 08:41:55;;;;;;;0.20;0.20;;;;;;;23.36;67.28;100355.41;5103496;28;20024;-69
2022/08/04 08:45:04;;;;;;;0.25;0.25;;;;;;;23.14;66.91;100367.38;5103201;28;20034;-64
2022/08/04 08:47:51;;;;;;;0.10;0.10;;;;;;;22.85;67.16;100372.66;5103328;28;20039;-70
2022/08/04 08:50:22;;;;;;;0.30;0.30;;;;;;;22.58;70.08;100376.00;5103367;28;20375;-66
2022/08/04 08:53:12;;;;;;;0.65;0.65;;;;;;;22.49;70.57;100357.06;5103484;28;20484;-66
2022/08/04 08:56:12;;;;;;;0.20;0.20;;;;;;;22.37;70.28;100340.16;5103562;28;20032;-67
2022/08/04 08:58:48;;;;;;;0.47;0.47;;;;;;;22.52;71.23;100354.25;5104160;28;20038;-66
2022/08/04 09:01:36;;;;;;;1.77;1.67;;;;;;;22.92;71.53;100354.59;5107653;28;20089;-66
2022/08/04 09:04:05;;;;;;;0.20;0.20;;;;;;;23.11;69.13;100359.59;5107508;28;20012;-65
2022/08/04 09:07:16;;;;;;;0.38;0.38;;;;;;;23.16;70.54;100362.84;5089187;28;20028;-65
2022/08/04 09:09:57;;;;;;;0.20;0.20;;;;;;;23.38;70.77;100361.47;5107203;28;20023;-62
2022/08/04 09:12:47;;;;;;;0.10;0.10;;;;;;;23.87;72.66;100369.88;5089058;28;20035;-62
2022/08/04 09:15:24;;;;;;;4.50;1.55;;;;;;;24.00;70.00;100365.47;5107083;28;20019;-68
2022/08/04 09:18:22;;;;;;;0.40;0.40;;;;;;;23.86;67.69;100369.03;5106925;28;20587;-66
2022/08/04 09:20:52;;;;;;;0.28;0.28;;;;;;;23.70;68.66;100353.28;5106517;28;20063;-62
2022/08/04 09:23:59;;;;;;;0.10;0.10;;;;;;;23.67;69.25;100353.50;5107260;28;20032;-62
2022/08/04 09:26:49;;;;;;;0.55;0.55;;;;;;;23.86;70.95;100369.03;5107055;28;20042;-66
2022/08/04 09:29:14;;;;;;;0.30;0.30;;;;;;;24.13;72.88;100367.31;5094478;28;20028;-64
2022/08/04 09:32:04;;;;;;;0.47;0.47;;;;;;;24.24;69.52;100356.88;5106282;28;20085;-63
2022/08/04 09:35:05;;;;;;;0.10;0.10;;;;;;;23.99;68.57;100358.44;5106825;28;20102;-63
2022/08/04 09:37:37;;;;;;;0.10;0.10;;;;;;;23.77;71.62;100353.75;5099959;28;20074;-63
2022/08/04 09:40:27;;;;;;;0.20;0.20;;;;;;;23.81;73.10;100357.03;5106604;28;20016;-63
2022/08/04 09:43:30;;;;;;;0.10;0.10;;;;;;;23.99;71.83;100354.97;5106753;28;20031;-64
2022/08/04 09:46:03;;;;;;;0.20;0.20;;;;;;;23.88;71.28;100335.31;5106390;28;20020;-66
2022/08/04 09:48:50;;;;;;;0.20;0.20;;;;;;;24.09;71.57;100345.44;5106608;28;20435;-68
2022/08/04 09:51:31;;;;;;;0.15;0.15;;;;;;;24.19;67.86;100336.91;5106403;28;20032;-65
2022/08/04 09:54:01;;;;;;;0.30;0.30;;;;;;;24.12;69.19;100326.66;5106585;28;20020;-66
2022/08/04 09:56:41;;;;;;;0.20;0.20;;;;;;;24.36;70.93;100325.16;5106557;28;20027;-65
2022/08/04 09:59:21;;;;;;;0.20;0.20;;;;;;;24.52;71.48;100327.63;5106290;28;20035;-68
2022/08/04 10:01:53;;;;;;;0.20;0.20;;;;;;;24.62;70.87;100319.84;5106029;28;20059;-66
2022/08/04 10:04:20;;;;;;;0.40;0.40;;;;;;;24.46;69.93;100323.56;5106386;28;20062;-65
2022/08/04 10:07:04;;;;;;;0.10;0.10;;;;;;;24.32;73.29;100327.16;5106350;28;20048;-66
2022/08/04 10:09:57;;;;;;;0.10;0.10;;;;;;;24.44;73.50;100325.47;5105946;28;20035;-65
2022/08/04 10:12:22;;;;;;;0.20;0.20;;;;;;;24.37;73.37;100322.41;5106138;28;20051;-66
2022/08/04 10:14:56;;;;;;;0.20;0.20;;;;;;;24.24;70.36;100322.38;5105826;28;20020;-65
2022/08/04 10:17:53;;;;;;;5.32;1.10;;;;;;;24.14;70.61;100323.91;5105993;28;20044;-66
2022/08/04 10:20:27;;;;;;;0.10;0.10;;;;;;;24.18;70.39;100314.84;5105787;28;20028;-67
2022/08/04 10:23:15;;;;;;;0.20;0.20;;;;;;;24.32;69.45;100313.91;5105856;28;20035;-68
2022/08/04 10:26:09;;;;;;;0.20;0.20;;;;;;;24.66;68.69;100297.47;5105942;28;20088;-72
2022/08/04 10:28:42;;;;;;;0.82;0.75;;;;;;;24.89;68.60;100295.00;5106004;28;20038;-72
2022/08/04 10:31:12;;;;;;;0.20;0.20;;;;;;;25.11;70.65;100288.16;5105807;28;20121;-72
2022/08/04 10:34:04;;;;;;;0.22;0.22;;;;;;;25.41;68.10;100302.84;5106014;28;20027;-67
2022/08/04 10:36:40;;;;;;;0.20;0.20;;;;;;;25.25;64.76;100281.84;5104735;28;20142;-67
2022/08/04 10:39:12;;;;;;;0.43;0.43;;;;;;;25.07;64.05;100289.34;5105651;28;20028;-66
2022/08/04 10:42:05;;;;;;;2.00;1.85;;;;;;;24.92;65.31;100289.47;5105629;28;20372;-68
2022/08/04 10:44:33;;;;;;;3.05;1.95;;;;;;;24.90;64.69;100293.19;5105350;28;20043;-67
2022/08/04 10:47:06;;;;;;;1.20;1.10;;;;;;;24.78;65.65;100287.75;5105420;28;20027;-66
2022/08/04 10:49:44;;;;;;;0.20;0.20;;;;;;;24.82;65.82;100293.72;5105275;28;20475;-68
2022/08/04 10:52:57;;;;;;;0.20;0.20;;;;;;;24.92;67.61;100281.50;5105368;28;20036;-69
2022/08/04 10:55:47;;;;;;;0.20;0.20;;;;;;;25.08;65.58;100280.44;5083256;28;20028;-69
2022/08/04 10:58:18;;;;;;;0.80;0.80;;;;;;;25.19;64.25;100288.44;5105417;28;20020;-66
2022/08/04 11:00:44;;;;;;;1.02;0.90;;;;;;;25.16;64.74;100286.00;5105119;28;20552;-68
2022/08/04 11:03:19;;;;;;;0.10;0.10;;;;;;;25.14;66.47;100285.28;5105368;28;20079;-68
2022/08/04 11:05:49;;;;;;;0.20;0.20;;;;;;;25.19;66.83;100284.97;5104997;28;20028;-68
2022/08/04 11:08:30;;;;;;;0.50;0.50;;;;;;;25.22;67.53;100274.09;5105173;28;20030;-66
2022/08/04 11:11:33;;;;;;;0.55;0.55;;;;;;;25.41;67.14;100276.25;5104909;28;20024;-71
2022/08/04 11:14:11;;;;;;;0.20;0.20;;;;;;;25.56;67.08;100278.75;5105201;28;20028;-68
2022/08/04 11:16:58;;;;;;;1.08;1.08;;;;;;;25.78;65.14;100278.03;5104443;28;20100;-68
2022/08/04 11:19:35;;;;;;;0.95;0.95;;;;;;;26.03;66.26;100265.50;5104781;28;20098;-66
2022/08/04 11:22:21;;;;;;;0.30;0.30;;;;;;;26.31;64.16;100270.53;5104149;28;20440;-68
2022/08/04 11:24:52;;;;;;;0.30;0.30;;;;;;;26.64;63.97;100263.56;5104439;28;20026;-65
2022/08/04 11:27:41;;;;;;;0.75;0.75;;;;;;;26.91;65.91;100262.31;5104955;28;20020;-66
2022/08/04 11:30:08;;;;;;;0.63;0.63;;;;;;;27.10;65.64;100258.19;5090899;28;20028;-68
2022/08/04 11:33:19;;;;;;;0.30;0.30;;;;;;;27.09;61.43;100257.34;5104747;28;20024;-66
2022/08/04 11:35:50;;;;;;;0.20;0.20;;;;;;;27.12;62.19;100253.59;5061403;28;20042;-71
2022/08/04 11:38:21;;;;;;;;;;;;;;;27.16;59.88;100255.03;5104809;28;20023;-69
2022/08/04 11:40:50;;;;;;;1.27;0.88;;;;;;;27.17;59.94;100259.41;5104262;28;19908;-69
2022/08/04 11:43:23;;;;;;;0.20;0.20;;;;;;;27.25;61.35;100249.91;5104544;28;20042;-68
2022/08/04 11:45:56;;;;;;;0.30;0.30;;;;;;;27.06;60.21;100259.41;5104000;28;20031;-69
2022/08/04 11:48:49;;;;;;;0.25;0.25;;;;;;;26.92;57.73;100253.34;5104367;28;20071;-68
2022/08/04 11:51:17;;;;;;;0.30;0.30;;;;;;;26.78;59.08;100253.59;5094122;28;20434;-65
2022/08/04 11:53:43;;;;;;;0.20;0.20;;;;;;;26.66;60.51;100277.56;5104325;28;20103;-66
2022/08/04 11:56:14;;;;;;;0.10;0.10;;;;;;;26.53;58.14;100256.41;5103994;28;20035;-68
2022/08/04 11:58:40;;;;;;;0.20;0.20;;;;;;;26.58;59.18;100248.06;5104161;28;20035;-68
2022/08/04 12:01:24;;;;;;;2.58;1.20;;;;;;;26.70;57.99;100265.72;5103627;28;20024;-67
2022/08/04 12:04:04;;;;;;;0.47;0.47;;;;;;;26.58;56.38;100258.72;5104131;28;20020;-69
2022/08/04 12:06:55;;;;;;;1.65;1.55;;;;;;;26.57;56.99;100257.00;5104101;28;20035;-66
2022/08/04 12:09:26;;;;;;;0.20;0.20;;;;;;;26.57;57.47;100251.69;5103973;28;20024;-65
2022/08/04 12:12:19;;;;;;;0.65;0.65;;;;;;;26.56;56.76;100260.66;5104248;28;20294;-65